Time;durP1;ratioP1;P1;durP2;ratioP2;P2;SDS_P1;SDS_P2;PMS_P1;PMS_P2;Temp;Humidity;BMP_temperature;BMP_pressure;BME280_temperature;BME280_humidity;BME280_pressure;Samples;Min_cycle;Max_cycle;Signal;HPM_P1;HPM_P2
2022/04/05 00:02:18;;;;;;;13.07;8.97;;;;;-0.60;96059.00;;;;4952368;29;20439;-69
2022/04/05 00:05:08;;;;;;;12.70;8.93;;;;;-0.60;96046.00;;;;4953729;28;20436;-69
2022/04/05 00:07:58;;;;;;;10.90;8.93;;;;;-0.60;96051.00;;;;4953670;29;20439;-68
2022/04/05 00:10:47;;;;;;;10.97;8.87;;;;;-0.60;96049.00;;;;4953323;28;20443;-69
2022/04/05 00:13:37;;;;;;;8.03;6.93;;;;;-0.90;96045.00;;;;4945314;29;20428;-68
2022/04/05 00:16:27;;;;;;;10.90;9.57;;;;;-0.80;96046.00;;;;4952225;28;20448;-69
2022/04/05 00:19:19;;;;;;;11.13;8.33;;;;;-0.70;96047.00;;;;4941483;29;21092;-69
2022/04/05 00:22:08;;;;;;;10.53;8.70;;;;;-0.60;96037.00;;;;4953018;29;20439;-69
2022/04/05 00:24:58;;;;;;;12.43;8.33;;;;;-0.70;96034.00;;;;4952373;28;20455;-69
2022/04/05 00:27:47;;;;;;;13.67;8.50;;;;;-0.70;96042.00;;;;4948562;29;20439;-68
2022/04/05 00:30:37;;;;;;;10.30;8.07;;;;;-0.80;96036.00;;;;4952631;28;20448;-71
2022/04/05 00:33:26;;;;;;;8.47;7.67;;;;;-0.80;96044.00;;;;4952589;28;20837;-69
2022/04/05 00:36:15;;;;;;;14.00;8.87;;;;;-0.70;96042.00;;;;4953175;28;20439;-69
2022/04/05 00:39:04;;;;;;;7.57;6.80;;;;;-1.00;96045.00;;;;4952469;28;20852;-68
2022/04/05 00:41:54;;;;;;;9.83;8.83;;;;;-1.20;96041.00;;;;4952515;29;20797;-69
2022/04/05 00:44:43;;;;;;;9.57;7.60;;;;;-1.10;96041.00;;;;4952891;29;20443;-69
2022/04/05 00:47:32;;;;;;;10.77;8.47;;;;;-1.00;96044.00;;;;4952157;29;20444;-69
2022/04/05 00:50:23;;;;;;;8.00;7.07;;;;;-1.20;96044.00;;;;4953312;28;20463;-69
2022/04/05 00:53:12;;;;;;;12.53;8.27;;;;;-1.20;96036.00;;;;4952395;28;20436;-69
2022/04/05 00:56:04;;;;;;;11.57;8.90;;;;;-0.90;96038.00;;;;4952606;29;20443;-69
2022/04/05 00:58:55;;;;;;;9.77;7.03;;;;;-1.00;96037.00;;;;4951874;28;20443;-70
2022/04/05 01:01:44;;;;;;;10.30;8.00;;;;;-0.90;96028.00;;;;4951642;29;20432;-69
2022/04/05 01:04:33;;;;;;;6.97;5.97;;;;;-1.00;96022.00;;;;4952558;29;20440;-69
2022/04/05 01:07:23;;;;;;;9.10;7.37;;;;;-0.90;96025.00;;;;4950784;29;20454;-69
2022/04/05 01:10:12;;;;;;;8.90;7.83;;;;;-0.90;96020.00;;;;4952417;28;20976;-69
2022/04/05 01:13:01;;;;;;;10.90;8.57;;;;;-1.10;96031.00;;;;4938384;29;20433;-69
2022/04/05 01:15:51;;;;;;;9.23;6.90;;;;;-0.90;96027.00;;;;4931896;29;20440;-69
2022/04/05 01:18:42;;;;;;;8.57;7.20;;;;;-0.90;96017.00;;;;4944464;29;20444;-69
2022/04/05 01:21:31;;;;;;;9.30;7.37;;;;;-1.10;96014.00;;;;4932324;29;20437;-69
2022/04/05 01:24:21;;;;;;;8.60;6.43;;;;;-1.20;96013.00;;;;4933486;28;20436;-69
2022/04/05 01:27:16;;;;;;;8.70;7.80;;;;;-0.90;96012.00;;;;4932806;29;20999;-69
2022/04/05 01:30:06;;;;;;;10.33;7.63;;;;;-0.90;96004.00;;;;4932824;29;20456;-69
2022/04/05 01:32:59;;;;;;;8.63;7.43;;;;;-0.90;96002.00;;;;4931713;29;20429;-70
2022/04/05 01:35:48;;;;;;;9.53;7.90;;;;;-0.90;96002.00;;;;4931212;29;20456;-71
2022/04/05 01:38:37;;;;;;;7.57;6.73;;;;;-0.90;95997.00;;;;4932036;29;20447;-71
2022/04/05 01:41:28;;;;;;;8.47;7.60;;;;;-0.90;95997.00;;;;4933457;29;20480;-69
2022/04/05 01:44:17;;;;;;;8.57;7.50;;;;;-1.20;95998.00;;;;4939762;29;20982;-69
2022/04/05 01:47:09;;;;;;;6.73;6.13;;;;;-1.30;95994.00;;;;4950870;29;20444;-71
2022/04/05 01:49:58;;;;;;;11.63;7.10;;;;;-1.40;95988.00;;;;4951623;28;20452;-71
2022/04/05 01:52:47;;;;;;;9.07;7.33;;;;;-1.50;95976.00;;;;4951749;29;20444;-71
2022/04/05 01:55:36;;;;;;;11.57;6.53;;;;;-1.40;95991.00;;;;4951758;29;20435;-69
2022/04/05 01:58:27;;;;;;;7.43;6.50;;;;;-1.30;95979.00;;;;4951411;28;20439;-71
2022/04/05 02:01:16;;;;;;;8.27;6.87;;;;;-1.50;95979.00;;;;4951575;28;20467;-71
2022/04/05 02:04:05;;;;;;;6.87;6.13;;;;;-1.30;95970.00;;;;4951571;29;20424;-71
2022/04/05 02:06:54;;;;;;;7.57;6.57;;;;;-1.20;95975.00;;;;4949954;29;20809;-71
2022/04/05 02:09:43;;;;;;;10.10;7.07;;;;;-1.10;95965.00;;;;4951115;28;20448;-71
2022/04/05 02:12:32;;;;;;;6.43;5.87;;;;;-1.20;95959.00;;;;4951081;28;20991;-71
2022/04/05 02:15:23;;;;;;;7.33;6.57;;;;;-1.30;95970.00;;;;4947062;29;20428;-70
2022/04/05 02:18:12;;;;;;;8.07;6.73;;;;;-1.10;95959.00;;;;4951135;28;21137;-70
2022/04/05 02:21:01;;;;;;;6.57;5.80;;;;;-0.90;95963.00;;;;4950190;28;20510;-71
2022/04/05 02:23:50;;;;;;;8.03;7.13;;;;;-1.00;95952.00;;;;4951511;29;20972;-71
2022/04/05 02:26:39;;;;;;;9.97;7.50;;;;;-1.00;95972.00;;;;4951049;29;20432;-70
2022/04/05 02:29:28;;;;;;;7.80;6.47;;;;;-0.90;95961.00;;;;4951024;28;20470;-68
2022/04/05 02:32:19;;;;;;;8.63;6.60;;;;;-1.20;95948.00;;;;4951875;29;20432;-71
2022/04/05 02:35:10;;;;;;;8.17;7.23;;;;;-1.20;95952.00;;;;4951418;28;20454;-71
2022/04/05 02:38:00;;;;;;;7.27;6.57;;;;;-1.30;95953.00;;;;4950413;29;20424;-71
2022/04/05 02:40:49;;;;;;;8.43;7.00;;;;;-1.30;95952.00;;;;4951964;28;20480;-71
2022/04/05 02:43:38;;;;;;;6.23;5.63;;;;;-1.20;95954.00;;;;4955010;29;20431;-71
2022/04/05 02:46:27;;;;;;;7.00;6.27;;;;;-1.10;95963.00;;;;4954269;28;20443;-70
2022/04/05 02:49:18;;;;;;;8.43;6.80;;;;;-1.20;95955.00;;;;4953898;28;20451;-70
2022/04/05 02:52:08;;;;;;;8.23;6.93;;;;;-1.10;95944.00;;;;4954841;29;20442;-71
2022/04/05 02:54:57;;;;;;;6.83;5.90;;;;;-1.10;95944.00;;;;4954809;29;20809;-71
2022/04/05 02:57:46;;;;;;;9.98;8.15;;;;;-1.50;95939.00;;;;4942724;29;20406;-70
2022/04/05 03:00:36;;;;;;;8.82;7.60;;;;;-1.50;95933.00;;;;4952215;28;20417;-71
2022/04/05 03:03:25;;;;;;;9.15;8.10;;;;;-1.40;95934.00;;;;4952722;29;20478;-71
2022/04/05 03:06:16;;;;;;;8.00;7.20;;;;;-1.40;95931.00;;;;4953323;29;20406;-71
2022/04/05 03:09:06;;;;;;;8.50;7.65;;;;;-1.20;95935.00;;;;4953272;28;20413;-71
2022/04/05 03:11:55;;;;;;;7.87;7.17;;;;;-1.20;95937.00;;;;4953230;28;20459;-71
2022/04/05 03:14:45;;;;;;;8.00;7.20;;;;;-1.40;95943.00;;;;4951663;29;20413;-71
2022/04/05 03:17:34;;;;;;;8.07;7.27;;;;;-1.90;95926.00;;;;4952786;29;20430;-71
2022/04/05 03:20:23;;;;;;;11.40;8.00;;;;;-1.80;95935.00;;;;4942701;29;20950;-70
2022/04/05 03:23:14;;;;;;;8.80;7.90;;;;;-1.50;95935.00;;;;4953043;29;20965;-71
2022/04/05 03:26:03;;;;;;;7.88;7.10;;;;;-1.40;95940.00;;;;4952672;29;20418;-71
2022/04/05 03:28:52;;;;;;;8.93;7.32;;;;;-1.50;95935.00;;;;4952065;29;20412;-71
2022/04/05 03:31:41;;;;;;;8.77;7.78;;;;;-1.50;95936.00;;;;4952849;28;20386;-71
2022/04/05 03:34:30;;;;;;;8.93;6.93;;;;;-1.40;95926.00;;;;4952995;28;20404;-71
2022/04/05 03:37:20;;;;;;;8.43;6.47;;;;;-1.70;95924.00;;;;4952253;29;20838;-71
2022/04/05 03:40:12;;;;;;;6.90;6.03;;;;;-2.10;95931.00;;;;4953422;28;20896;-71
2022/04/05 03:43:01;;;;;;;7.80;6.57;;;;;-2.00;95924.00;;;;4951888;29;20467;-71
2022/04/05 03:45:50;;;;;;;6.97;6.27;;;;;-1.80;95933.00;;;;4952549;28;20419;-71
2022/04/05 03:48:39;;;;;;;7.20;6.50;;;;;-1.80;95924.00;;;;4952770;28;20413;-71
2022/04/05 03:51:28;;;;;;;6.30;5.72;;;;;-1.70;95917.00;;;;4952423;28;20904;-71
2022/04/05 03:54:17;;;;;;;7.13;6.03;;;;;-1.60;95926.00;;;;4952760;29;20908;-71
2022/04/05 03:57:08;;;;;;;7.60;5.95;;;;;-1.70;95922.00;;;;4952529;29;20398;-71
2022/04/05 03:59:57;;;;;;;7.28;6.10;;;;;-1.40;95929.00;;;;4952358;28;20390;-71
2022/04/05 04:02:46;;;;;;;7.75;6.50;;;;;-1.30;95933.00;;;;4951791;29;20402;-71
2022/04/05 04:05:35;;;;;;;7.53;6.82;;;;;-1.40;95928.00;;;;4952665;28;20395;-71
2022/04/05 04:08:24;;;;;;;7.28;6.05;;;;;-1.60;95927.00;;;;4946363;29;20406;-71
2022/04/05 04:11:13;;;;;;;8.40;6.80;;;;;-1.90;95909.00;;;;4949456;28;20398;-71
2022/04/05 04:14:04;;;;;;;7.10;6.15;;;;;-1.80;95905.00;;;;4951592;28;20414;-71
2022/04/05 04:16:53;;;;;;;7.40;6.23;;;;;-1.40;95922.00;;;;4945670;29;20502;-71
2022/04/05 04:19:42;;;;;;;11.33;7.33;;;;;-1.20;95919.00;;;;4947575;28;20412;-71
2022/04/05 04:22:31;;;;;;;9.48;7.15;;;;;-1.10;95922.00;;;;4951250;29;20413;-72
2022/04/05 04:25:21;;;;;;;7.18;5.57;;;;;-1.50;95917.00;;;;4951400;29;20733;-71
2022/04/05 04:28:10;;;;;;;6.80;5.72;;;;;-1.70;95912.00;;;;4951410;29;20395;-71
2022/04/05 04:31:01;;;;;;;6.80;5.65;;;;;-1.60;95921.00;;;;4950575;28;20403;-70
2022/04/05 04:33:50;;;;;;;7.07;6.22;;;;;-1.70;95914.00;;;;4950420;29;20409;-71
2022/04/05 04:36:39;;;;;;;6.90;5.80;;;;;-1.40;95908.00;;;;4943516;28;20411;-70
2022/04/05 04:39:29;;;;;;;6.15;5.55;;;;;-1.50;95904.00;;;;4948902;28;20811;-70
2022/04/05 04:42:18;;;;;;;6.40;5.80;;;;;-1.50;95911.00;;;;4947933;29;20425;-71
2022/04/05 04:45:08;;;;;;;6.43;5.78;;;;;-1.50;95914.00;;;;4948164;29;20410;-70
2022/04/05 04:47:58;;;;;;;7.15;5.68;;;;;-1.30;95903.00;;;;4947025;29;20406;-71
2022/04/05 04:50:47;;;;;;;7.82;5.95;;;;;-1.10;95916.00;;;;4945459;28;20406;-70
2022/04/05 04:53:36;;;;;;;6.63;5.32;;;;;-1.30;95912.00;;;;4950232;28;20402;-71
2022/04/05 04:56:25;;;;;;;6.90;6.18;;;;;-1.10;95911.00;;;;4943436;29;20409;-70
2022/04/05 04:59:14;;;;;;;6.38;5.20;;;;;-1.30;95910.00;;;;4949758;28;20930;-71
2022/04/05 05:02:04;;;;;;;7.40;5.55;;;;;-1.00;95916.00;;;;4950220;29;20433;-70
2022/04/05 05:04:54;;;;;;;6.82;6.03;;;;;-1.20;95916.00;;;;4949121;28;20395;-70
2022/04/05 05:07:44;;;;;;;5.72;5.20;;;;;-1.40;95914.00;;;;4944842;29;20422;-70
2022/04/05 05:10:33;;;;;;;7.88;6.28;;;;;-1.10;95919.00;;;;4943579;29;20419;-70
2022/04/05 05:13:22;;;;;;;7.93;6.05;;;;;-1.00;95907.00;;;;4949673;28;20401;-71
2022/04/05 05:16:11;;;;;;;10.00;5.15;;;;;-0.90;95911.00;;;;4944655;29;20406;-70
2022/04/05 05:19:01;;;;;;;9.57;5.85;;;;;-1.00;95916.00;;;;4940514;29;20400;-71
2022/04/05 05:21:51;;;;;;;6.15;5.55;;;;;-1.10;95916.00;;;;4939202;29;20413;-70
2022/04/05 05:24:40;;;;;;;4.88;4.32;;;;;-1.00;95913.00;;;;4947629;29;20413;-71
2022/04/05 05:27:30;;;;;;;5.05;4.57;;;;;-0.90;95928.00;;;;4943744;29;20787;-70
2022/04/05 05:30:19;;;;;;;6.20;5.18;;;;;-0.80;95912.00;;;;4949257;28;20417;-70
2022/04/05 05:33:08;;;;;;;7.85;5.18;;;;;-0.50;95923.00;;;;4949234;29;20398;-71
2022/04/05 05:35:58;;;;;;;6.03;5.40;;;;;-0.30;95911.00;;;;4948036;29;20912;-70
2022/04/05 05:38:49;;;;;;;7.68;4.78;;;;;-0.10;95911.00;;;;4944097;28;20394;-70
2022/04/05 05:41:38;;;;;;;5.75;4.90;;;;;-0.20;95913.00;;;;4936468;29;20409;-70
2022/04/05 05:44:27;;;;;;;4.68;4.28;;;;;-0.40;95902.00;;;;4945136;29;20954;-71
2022/04/05 05:47:16;;;;;;;5.28;4.60;;;;;-0.30;95913.00;;;;4939483;29;20425;-71
2022/04/05 05:50:06;;;;;;;6.78;5.10;;;;;0.00;95913.00;;;;4931035;29;20399;-71
2022/04/05 05:52:56;;;;;;;5.95;4.82;;;;;0.60;95916.00;;;;4940936;29;20547;-71
2022/04/05 05:55:48;;;;;;;7.43;4.50;;;;;0.50;95931.00;;;;4929039;29;20415;-70
2022/04/05 05:58:37;;;;;;;5.05;4.55;;;;;-0.10;95935.00;;;;4929493;29;20415;-70
2022/04/05 06:01:26;;;;;;;5.05;3.90;;;;;-0.20;95922.00;;;;4919653;29;20414;-70
2022/04/05 06:04:15;;;;;;;6.72;4.78;;;;;0.00;95921.00;;;;4923660;29;20930;-70
2022/04/05 06:07:04;;;;;;;7.13;5.18;;;;;0.40;95926.00;;;;4920747;29;20424;-71
2022/04/05 06:09:53;;;;;;;6.15;4.70;;;;;0.90;95931.00;;;;4921487;29;20424;-70
2022/04/05 06:12:45;;;;;;;4.63;4.22;;;;;0.90;95938.00;;;;4926571;29;20404;-71
2022/04/05 06:15:34;;;;;;;5.00;4.45;;;;;0.90;95932.00;;;;4920233;29;20424;-70
2022/04/05 06:18:23;;;;;;;4.50;4.10;;;;;0.70;95917.00;;;;4927380;29;21304;-70
2022/04/05 06:21:12;;;;;;;4.28;3.88;;;;;0.90;95923.00;;;;4926679;29;20408;-70
2022/04/05 06:24:01;;;;;;;4.50;4.10;;;;;1.00;95930.00;;;;4920709;29;20415;-69
2022/04/05 06:26:50;;;;;;;4.68;4.18;;;;;1.10;95922.00;;;;4923739;29;20423;-69
2022/04/05 06:29:41;;;;;;;4.60;3.70;;;;;1.10;95917.00;;;;4924744;29;20430;-69
2022/04/05 06:32:30;;;;;;;6.93;6.22;;;;;1.00;95918.00;;;;4927685;29;20406;-69
2022/04/05 06:35:19;;;;;;;4.90;4.38;;;;;1.00;95913.00;;;;4927562;29;20404;-68
2022/04/05 06:38:08;;;;;;;4.18;3.78;;;;;1.40;95918.00;;;;4925934;29;20392;-68
2022/04/05 06:41:00;;;;;;;4.70;4.20;;;;;1.30;95927.00;;;;4922143;29;20408;-69
2022/04/05 06:43:49;;;;;;;4.70;3.78;;;;;0.80;95922.00;;;;4933703;29;20915;-68
2022/04/05 06:46:40;;;;;;;4.70;3.90;;;;;1.10;95913.00;;;;4947132;28;20398;-71
2022/04/05 06:49:29;;;;;;;4.30;3.90;;;;;1.40;95910.00;;;;4948104;28;20421;-68
2022/04/05 06:52:18;;;;;;;4.38;3.97;;;;;1.30;95922.00;;;;4950624;28;20771;-69
2022/04/05 06:55:09;;;;;;;4.32;3.92;;;;;1.60;95928.00;;;;4949237;29;20721;-69
2022/04/05 06:57:58;;;;;;;3.78;3.47;;;;;1.50;95925.00;;;;4949608;29;20421;-69
2022/04/05 07:00:47;;;;;;;4.28;3.88;;;;;1.40;95918.00;;;;4946804;28;20410;-69
2022/04/05 07:03:38;;;;;;;7.10;5.15;;;;;1.30;95915.00;;;;4948213;29;20798;-69
2022/04/05 07:06:27;;;;;;;5.43;4.53;;;;;1.90;95922.00;;;;4947769;29;20390;-69
2022/04/05 07:09:16;;;;;;;7.63;5.50;;;;;2.20;95922.00;;;;4948445;28;20398;-69
2022/04/05 07:12:07;;;;;;;8.68;5.22;;;;;2.30;95930.00;;;;4945531;28;20398;-70
2022/04/05 07:14:56;;;;;;;6.57;5.00;;;;;2.10;95938.00;;;;4945594;29;20409;-70
2022/04/05 07:17:45;;;;;;;4.63;4.18;;;;;1.80;95933.00;;;;4946630;28;20422;-70
2022/04/05 07:20:52;;;;;;;4.47;4.10;;;;;1.70;95916.00;;;;4948702;28;20418;-70
2022/04/05 07:23:41;;;;;;;6.75;4.18;;;;;2.10;95927.00;;;;4947979;29;20821;-70
2022/04/05 07:26:30;;;;;;;5.68;4.50;;;;;2.40;95925.00;;;;4945227;28;20406;-70
2022/04/05 07:29:19;;;;;;;5.20;4.18;;;;;2.40;95921.00;;;;4948999;28;20413;-70
2022/04/05 07:32:09;;;;;;;6.38;4.03;;;;;2.20;95929.00;;;;4944669;29;20402;-71
2022/04/05 07:34:58;;;;;;;4.30;3.85;;;;;2.30;95927.00;;;;4946477;28;20410;-70
2022/04/05 07:37:48;;;;;;;5.72;4.30;;;;;2.50;95930.00;;;;4945920;29;20934;-70
2022/04/05 07:40:50;;;;;;;7.20;3.90;;;;;2.70;95921.00;;;;4952132;28;20402;-70
2022/04/05 07:43:39;;;;;;;5.70;3.53;;;;;3.00;95927.00;;;;4952376;28;20417;-70
2022/04/05 07:46:28;;;;;;;4.43;3.33;;;;;2.90;95938.00;;;;4948858;29;20775;-71
2022/04/05 07:49:17;;;;;;;3.70;3.28;;;;;2.90;95946.00;;;;4947968;28;20417;-70
2022/04/05 07:52:06;;;;;;;4.28;3.58;;;;;2.80;95954.00;;;;4947828;29;20779;-70
2022/04/05 07:54:57;;;;;;;4.03;3.22;;;;;2.70;95936.00;;;;4953289;28;20402;-71
2022/04/05 07:57:46;;;;;;;3.70;3.40;;;;;2.80;95942.00;;;;4951997;29;20409;-71
2022/04/05 08:00:36;;;;;;;4.20;3.53;;;;;2.50;95942.00;;;;4951890;28;20802;-70
2022/04/05 08:03:25;;;;;;;4.07;3.70;;;;;2.80;95946.00;;;;4950052;29;20831;-71
2022/04/05 08:06:14;;;;;;;3.90;3.50;;;;;2.40;95960.00;;;;4951849;29;20772;-70
2022/04/05 08:09:03;;;;;;;3.92;3.53;;;;;2.50;95946.00;;;;4952199;28;20410;-71
2022/04/05 08:11:53;;;;;;;6.50;3.70;;;;;2.80;95954.00;;;;4951670;28;20410;-71
2022/04/05 08:14:42;;;;;;;4.18;3.78;;;;;2.80;95954.00;;;;4949394;29;20398;-70
2022/04/05 08:17:31;;;;;;;4.55;4.15;;;;;2.90;95966.00;;;;4948108;29;20806;-70
2022/04/05 08:20:21;;;;;;;4.15;3.75;;;;;3.00;95956.00;;;;4950807;28;20413;-70
2022/04/05 08:23:10;;;;;;;6.15;5.45;;;;;3.20;95965.00;;;;4952434;28;20418;-70
2022/04/05 08:25:59;;;;;;;4.63;4.20;;;;;3.50;95975.00;;;;4952528;28;20954;-70
2022/04/05 08:28:50;;;;;;;7.70;5.68;;;;;3.30;95981.00;;;;4950214;29;20776;-70
2022/04/05 08:31:39;;;;;;;6.30;5.18;;;;;3.40;95983.00;;;;4949632;29;20898;-70
2022/04/05 08:34:31;;;;;;;7.40;6.60;;;;;3.30;95989.00;;;;4951184;28;20386;-70
2022/04/05 08:37:22;;;;;;;7.53;6.63;;;;;3.40;95982.00;;;;4950787;29;20421;-70
2022/04/05 08:40:12;;;;;;;9.50;7.47;;;;;3.70;95993.00;;;;4949578;28;20417;-70
2022/04/05 08:43:01;;;;;;;7.33;5.93;;;;;3.90;95999.00;;;;4946800;29;20991;-70
2022/04/05 08:45:59;;;;;;;8.02;6.40;;;;;3.90;95994.00;;;;4949278;28;20946;-70
2022/04/05 08:48:49;;;;;;;7.43;6.60;;;;;4.30;96009.00;;;;4950493;29;20915;-71
2022/04/05 08:51:38;;;;;;;6.07;5.47;;;;;4.20;95991.00;;;;4952327;28;20938;-70
2022/04/05 08:54:27;;;;;;;6.43;5.32;;;;;4.20;95994.00;;;;4947490;28;20413;-70
2022/04/05 08:57:17;;;;;;;4.80;4.30;;;;;4.30;95998.00;;;;4948104;29;20409;-70
2022/04/05 09:00:08;;;;;;;5.75;4.50;;;;;4.70;96013.00;;;;4944781;28;20428;-70
2022/04/05 09:03:00;;;;;;;5.55;5.05;;;;;4.50;96004.00;;;;4948583;29;20402;-70
2022/04/05 09:05:50;;;;;;;7.07;5.25;;;;;4.60;96005.00;;;;4947678;29;20473;-70
2022/04/05 09:08:39;;;;;;;6.47;5.10;;;;;4.70;96008.00;;;;4949463;29;20406;-70
2022/04/05 09:11:29;;;;;;;5.60;4.70;;;;;4.70;96009.00;;;;4948498;28;20405;-70
2022/04/05 09:14:24;;;;;;;6.15;5.03;;;;;5.20;96017.00;;;;4947023;29;20402;-70
2022/04/05 09:17:13;;;;;;;5.93;4.55;;;;;5.50;96013.00;;;;4944822;29;20402;-70
2022/04/05 09:20:05;;;;;;;7.43;5.77;;;;;5.40;96015.00;;;;4948237;28;20416;-70
2022/04/05 09:22:56;;;;;;;6.70;5.30;;;;;5.80;96023.00;;;;4949801;29;20406;-70
2022/04/05 09:25:55;;;;;;;6.57;5.15;;;;;6.00;96023.00;;;;4950929;29;20426;-70
2022/04/05 09:28:45;;;;;;;7.72;5.68;;;;;6.00;96021.00;;;;4949462;29;20911;-70
2022/04/05 09:31:44;;;;;;;8.20;6.97;;;;;6.40;96017.00;;;;4949647;29;20402;-70
2022/04/05 09:34:33;;;;;;;7.70;5.50;;;;;6.70;96025.00;;;;4948421;29;20411;-70
2022/04/05 09:37:28;;;;;;;7.05;5.32;;;;;6.60;96022.00;;;;4945447;29;20424;-70
2022/04/05 09:40:19;;;;;;;7.32;5.10;;;;;7.10;96020.00;;;;4949318;28;20421;-70
2022/04/05 09:43:12;;;;;;;5.05;4.53;;;;;7.40;96028.00;;;;4948616;29;20409;-71
2022/04/05 09:46:02;;;;;;;9.32;5.30;;;;;7.50;96029.00;;;;4945038;28;20458;-71
2022/04/05 09:49:06;;;;;;;5.78;4.93;;;;;7.40;96031.00;;;;4948751;29;20955;-70
2022/04/05 09:51:55;;;;;;;5.40;4.90;;;;;7.50;96034.00;;;;4945375;29;20918;-70
2022/04/05 09:54:45;;;;;;;6.03;5.07;;;;;7.80;96040.00;;;;4947572;29;20410;-70
2022/04/05 09:57:35;;;;;;;6.10;5.13;;;;;8.50;96036.00;;;;4948960;29;20401;-70
2022/04/05 10:00:24;;;;;;;6.88;4.65;;;;;8.90;96035.00;;;;4945080;28;20926;-71
2022/04/05 10:03:13;;;;;;;7.53;4.72;;;;;8.40;96015.00;;;;4949314;28;20413;-70
2022/04/05 10:06:03;;;;;;;5.80;3.90;;;;;9.00;96040.00;;;;4950991;29;20681;-70
2022/04/05 10:08:52;;;;;;;5.00;4.37;;;;;9.50;96037.00;;;;4950723;29;20208;-70
2022/04/05 10:11:44;;;;;;;5.53;3.97;;;;;9.70;96025.00;;;;4951148;28;20212;-71
2022/04/05 10:14:33;;;;;;;10.23;4.30;;;;;9.70;96033.00;;;;4950082;28;20692;-71
2022/04/05 10:17:25;;;;;;;6.90;4.85;;;;;9.80;96033.00;;;;4945040;29;20406;-70
2022/04/05 10:20:15;;;;;;;8.20;4.10;;;;;10.20;96040.00;;;;4949644;28;20416;-70
2022/04/05 10:23:04;;;;;;;5.53;3.88;;;;;10.10;96036.00;;;;4950061;29;20402;-70
2022/04/05 10:25:54;;;;;;;8.83;4.07;;;;;10.50;96030.00;;;;4950775;29;20211;-70
2022/04/05 10:28:46;;;;;;;8.07;3.47;;;;;10.90;96023.00;;;;4940108;28;20207;-71
2022/04/05 10:31:46;;;;;;;3.77;2.87;;;;;10.90;96022.00;;;;4952147;28;20308;-71
2022/04/05 10:34:41;;;;;;;7.20;3.83;;;;;11.00;96018.00;;;;4951661;29;20748;-71
2022/04/05 10:37:32;;;;;;;2.97;2.67;;;;;11.30;96018.00;;;;4951113;28;20252;-70
2022/04/05 10:40:21;;;;;;;4.80;4.10;;;;;11.60;96009.00;;;;4948239;28;20232;-71
2022/04/05 10:43:19;;;;;;;4.37;3.97;;;;;11.60;96017.00;;;;4951227;28;20215;-71
2022/04/05 10:46:09;;;;;;;5.93;3.40;;;;;11.60;96009.00;;;;4946535;29;20258;-70
2022/04/05 10:48:59;;;;;;;3.83;3.00;;;;;11.90;96013.00;;;;4949636;28;20239;-70
2022/04/05 10:52:09;;;;;;;6.23;3.87;;;;;12.10;96012.00;;;;4946332;29;20207;-71
2022/04/05 10:55:11;;;;;;;3.60;3.03;;;;;11.90;95998.00;;;;4943504;29;20218;-69
2022/04/05 10:58:10;;;;;;;6.17;3.03;;;;;12.30;95994.00;;;;4949029;29;20712;-70
2022/04/05 11:04:27;;;;;;;3.07;2.77;;;;;13.00;96000.00;;;;5104997;27;21038;-70
2022/04/05 11:07:17;;;;;;;4.23;2.73;;;;;13.10;95994.00;;;;5120416;27;20213;-70
2022/04/05 11:10:07;;;;;;;4.70;3.37;;;;;13.40;95986.00;;;;5143991;27;20228;-70
2022/04/05 11:13:03;;;;;;;6.90;5.73;;;;;13.80;96007.00;;;;5139071;27;20197;-70
2022/04/05 11:15:56;;;;;;;4.97;3.73;;;;;13.80;95993.00;;;;5137964;27;20193;-71
2022/04/05 11:18:46;;;;;;;2.87;2.60;;;12.90;84.00;13.70;95984.00;;;;5143354;27;20698;-70
2022/04/05 11:21:56;;;;;;;3.10;2.53;;;12.90;84.60;14.00;95987.00;;;;5118138;28;20198;-71
2022/04/05 11:24:55;;;;;;;3.27;2.20;;;12.90;84.30;14.10;96000.00;;;;5121140;28;20206;-70
2022/04/05 11:27:48;;;;;;;2.73;2.03;;;13.10;82.20;14.10;95999.00;;;;5121777;28;20707;-71
2022/04/05 11:30:54;;;;;;;1.87;1.70;;;13.20;80.60;14.40;95993.00;;;;5124450;28;20209;-71
2022/04/05 11:33:45;;;;;;;2.10;1.40;;;13.30;78.80;14.50;95989.00;;;;5116998;28;20212;-70
2022/04/05 11:36:43;;;;;;;2.13;1.90;;;13.50;76.70;14.70;95993.00;;;;5112792;28;20609;-71
2022/04/05 11:39:40;;;;;;;3.23;1.90;;;13.60;75.60;14.20;95989.00;;;;5121316;28;20323;-71
2022/04/05 11:42:36;;;;;;;1.60;1.50;;;13.60;72.30;14.30;95994.00;;;;5125033;28;20297;-70
2022/04/05 11:45:25;;;;;;;2.33;1.90;;;13.60;72.50;14.50;95992.00;;;;5113899;28;20265;-71
2022/04/05 11:48:15;;;;;;;3.57;1.30;;;13.60;73.80;14.60;95990.00;;;;5119539;28;20202;-70
2022/04/05 11:51:09;;;;;;;2.60;1.50;;;13.70;73.40;14.60;95992.00;;;;5121771;28;20736;-71
2022/04/05 11:54:05;;;;;;;3.70;1.83;;;13.70;73.10;14.80;95988.00;;;;5123722;28;20202;-70
2022/04/05 11:56:54;;;;;;;5.37;1.53;;;13.80;74.30;15.50;95971.00;;;;5117488;28;20206;-70
2022/04/05 11:59:45;;;;;;;1.40;1.07;;;14.00;73.90;16.40;95953.00;;;;5122104;28;20226;-71
2022/04/05 12:02:33;;;;;;;6.77;2.07;;;14.40;72.70;16.70;95971.00;;;;5120752;28;20237;-70
2022/04/05 12:05:22;;;;;;;3.40;2.20;;;14.80;72.50;16.50;95977.00;;;;5123681;28;20202;-70
2022/04/05 12:08:12;;;;;;;2.20;2.07;;;15.10;71.50;16.50;95995.00;;;;5125265;28;20639;-70
2022/04/05 12:11:01;;;;;;;4.77;2.03;;;15.30;71.10;16.40;95991.00;;;;5125258;28;20230;-70
2022/04/05 12:13:55;;;;;;;2.70;1.97;;;15.40;71.30;15.80;95986.00;;;;5110805;28;20209;-71
2022/04/05 12:16:49;;;;;;;2.57;1.80;;;15.40;67.00;16.00;95984.00;;;;5102351;28;20272;-70
2022/04/05 12:19:40;;;;;;;5.40;2.17;;;15.30;67.20;16.00;95990.00;;;;5098698;28;20249;-70
2022/04/05 12:22:34;;;;;;;2.63;2.13;;;15.30;67.40;16.20;95992.00;;;;5101716;28;20223;-70
2022/04/05 12:25:23;;;;;;;4.40;3.40;;;15.30;68.00;16.10;95970.00;;;;5108040;28;20697;-70
2022/04/05 12:28:12;;;;;;;2.10;1.70;;;15.30;67.10;16.40;95978.00;;;;5093466;28;20713;-70
2022/04/05 12:31:13;;;;;;;5.37;3.00;;;15.30;67.40;16.30;95991.00;;;;5104597;28;20229;-70
2022/04/05 12:34:08;;;;;;;3.70;2.13;;;15.40;66.30;16.40;95988.00;;;;5105470;28;20198;-71
2022/04/05 12:36:59;;;;;;;4.43;3.93;;;15.40;67.00;16.20;95980.00;;;;5101471;28;20308;-71
2022/04/05 12:39:50;;;;;;;1.97;1.70;;;15.50;66.50;16.00;95970.00;;;;5102056;28;20219;-70
2022/04/05 12:42:42;;;;;;;9.83;6.17;;;15.40;65.00;16.50;95975.00;;;;5105748;28;20226;-71
2022/04/05 12:45:31;;;;;;;4.17;3.43;;;15.40;65.90;16.50;95964.00;;;;5104618;28;20203;-71
2022/04/05 12:48:22;;;;;;;3.17;1.87;;;15.50;65.50;16.80;95949.00;;;;5103353;28;20206;-70
2022/04/05 12:51:12;;;;;;;4.43;1.60;;;15.60;63.20;17.70;95943.00;;;;5104849;28;20225;-71
2022/04/05 12:54:01;;;;;;;2.27;1.27;;;15.90;64.80;17.90;95943.00;;;;5105255;28;20288;-71
2022/04/05 12:56:49;;;;;;;2.47;2.27;;;15.80;62.80;17.70;95954.00;;;;5100599;28;20202;-71
2022/04/05 12:59:38;;;;;;;1.57;1.47;;;16.60;61.70;17.50;95939.00;;;;5101364;28;20563;-70
2022/04/05 13:02:27;;;;;;;1.83;1.33;;;16.60;61.00;18.90;95932.00;;;;5104198;28;20234;-71
2022/04/05 13:08:33;;;;;;;2.60;1.40;;;17.30;59.50;18.50;95949.00;;;;5103496;28;20203;-71
2022/04/05 13:11:25;;;;;;;3.70;1.00;;;17.40;58.10;18.30;95947.00;;;;5106964;28;20203;-70
2022/04/05 13:14:17;;;;;;;1.47;1.17;;;17.40;58.10;17.50;95944.00;;;;5102940;28;20199;-70
2022/04/05 13:17:08;;;;;;;1.53;1.20;;;17.30;56.30;17.60;95932.00;;;;5099933;28;20195;-71
2022/04/05 13:19:57;;;;;;;1.20;0.90;;;17.10;57.10;17.10;95956.00;;;;5106692;28;20215;-70
2022/04/05 13:23:01;;;;;;;4.57;1.30;;;16.90;56.30;16.80;95946.00;;;;5098328;28;20203;-70
2022/04/05 13:25:51;;;;;;;1.57;1.30;;;16.60;57.60;16.40;95957.00;;;;5103996;28;20187;-70
2022/04/05 13:28:40;;;;;;;1.03;0.90;;;16.40;57.10;15.60;95939.00;;;;5101596;28;20693;-71
2022/04/05 13:31:33;;;;;;;0.90;0.90;;;16.20;57.20;16.10;95929.00;;;;5104308;28;20211;-70
2022/04/05 13:34:24;;;;;;;1.67;1.17;;;16.00;57.50;16.80;95936.00;;;;5102897;28;20214;-71
2022/04/05 13:37:18;;;;;;;2.83;1.10;;;15.90;58.60;17.40;95890.00;;;;5097441;28;20571;-70
2022/04/05 13:40:09;;;;;;;2.43;1.20;;;16.10;59.10;18.30;95921.00;;;;5097377;28;20700;-70
2022/04/05 13:42:59;;;;;;;1.40;0.90;;;16.50;59.70;17.50;95933.00;;;;5104240;28;20214;-70
2022/04/05 13:45:49;;;;;;;1.40;1.27;;;16.70;58.30;17.50;95934.00;;;;5102431;28;20202;-70
2022/04/05 13:48:38;;;;;;;2.27;1.27;;;16.80;57.40;17.60;95937.00;;;;5101736;28;20588;-70
2022/04/05 13:51:27;;;;;;;2.73;1.10;;;16.80;58.20;17.40;95929.00;;;;5099101;28;20198;-70
2022/04/05 13:54:26;;;;;;;1.37;1.27;;;16.80;57.50;17.70;95936.00;;;;5104062;28;20194;-69
2022/04/05 13:57:18;;;;;;;1.50;1.37;;;16.70;57.70;18.20;95918.00;;;;5103143;28;20199;-69
2022/04/05 14:00:10;;;;;;;3.30;2.07;;;16.80;58.50;18.50;95927.00;;;;5107087;28;20222;-70
2022/04/05 14:02:59;;;;;;;1.80;1.70;;;17.00;59.10;18.30;95927.00;;;;5101035;28;20222;-70